Time;durP1;ratioP1;P1;durP2;ratioP2;P2;SDS_P1;SDS_P2;PMS_P1;PMS_P2;Temp;Humidity;BMP_temperature;BMP_pressure;BME280_temperature;BME280_humidity;BME280_pressure;Samples;Min_cycle;Max_cycle;Signal;HPM_P1;HPM_P2
2022/03/30 00:00:15;;;;;;;0.30;0.20;;;;;;;11.00;81.49;95050.97;5092712;28;20437;-54
2022/03/30 00:02:44;;;;;;;1.07;1.07;;;;;;;10.71;83.66;95052.75;5092507;28;20425;-54
2022/03/30 00:05:12;;;;;;;0.30;0.20;;;;;;;10.58;88.66;95048.06;5092358;28;20440;-54
2022/03/30 00:07:41;;;;;;;0.30;0.20;;;;;;;10.54;85.39;95007.31;5092820;28;20424;-54
2022/03/30 00:10:10;;;;;;;0.40;0.30;;;;;;;10.78;83.61;95037.31;5092113;28;20496;-54
2022/03/30 00:12:38;;;;;;;0.80;0.77;;;;;;;10.90;80.11;95035.13;5092665;28;20436;-54
2022/03/30 00:15:07;;;;;;;2.00;1.17;;;;;;;10.64;83.95;95033.72;5092549;28;20481;-54
2022/03/30 00:17:37;;;;;;;1.43;1.23;;;;;;;9.61;95.29;95025.78;5092157;28;20462;-54
2022/03/30 00:20:06;;;;;;;0.40;0.37;;;;;;;9.36;100.00;95041.72;5091958;28;20464;-54
2022/03/30 00:22:35;;;;;;;0.37;0.30;;;;;;;7.85;100.00;94781.13;5092150;28;20499;-54
2022/03/30 00:25:04;;;;;;;0.40;0.30;;;;;;;9.76;100.00;95032.84;5092023;28;20963;-53
2022/03/30 00:27:32;;;;;;;0.40;0.30;;;;;;;9.90;95.37;95041.78;5092112;28;20816;-54
2022/03/30 00:30:00;;;;;;;0.50;0.50;;;;;;;9.25;100.00;95035.63;5092179;28;20432;-54
2022/03/30 00:32:29;;;;;;;2.10;2.00;;;;;;;9.61;100.00;95033.72;5092108;28;20511;-54
2022/03/30 00:34:59;;;;;;;0.50;0.50;;;;;;;9.74;99.29;95022.53;5092190;28;20860;-54
2022/03/30 00:37:28;;;;;;;0.30;0.20;;;;;;;10.18;95.16;95028.72;5091957;28;20475;-54
2022/03/30 00:39:56;;;;;;;0.40;0.37;;;;;;;10.43;91.83;95022.47;5091440;28;20486;-53
2022/03/30 00:42:25;;;;;;;0.40;0.30;;;;;;;10.03;94.47;95020.81;5091295;28;20563;-53
2022/03/30 00:44:54;;;;;;;0.90;0.90;;;;;;;10.29;92.73;95026.00;5091853;28;20976;-53
2022/03/30 00:47:27;;;;;;;0.30;0.30;;;;;;;10.47;90.83;95022.72;5092059;28;20853;-53
2022/03/30 00:49:55;;;;;;;0.43;0.30;;;;;;;10.60;87.55;95027.41;5092014;28;20511;-53
2022/03/30 00:52:25;;;;;;;0.30;0.20;;;;;;;10.69;84.33;95028.41;5091610;28;20913;-53
2022/03/30 00:54:53;;;;;;;0.30;0.20;;;;;;;10.61;84.05;95023.66;5091880;28;20420;-53
2022/03/30 00:57:23;;;;;;;0.30;0.20;;;;;;;10.61;83.35;95021.03;5092018;28;20456;-53
2022/03/30 00:59:52;;;;;;;0.40;0.30;;;;;;;10.58;83.39;95018.91;5091151;28;20424;-53
2022/03/30 01:02:22;;;;;;;0.33;0.27;;;;;;;10.37;88.92;95014.84;5091793;28;20511;-53
2022/03/30 01:04:51;;;;;;;0.30;0.20;;;;;;;10.50;85.72;95020.28;5091664;28;20452;-53
2022/03/30 01:07:20;;;;;;;0.30;0.20;;;;;;;10.39;86.20;94996.81;5091391;28;20460;-53
2022/03/30 01:09:49;;;;;;;0.30;0.20;;;;;;;10.47;85.05;95014.78;5091361;28;20515;-52
2022/03/30 01:12:18;;;;;;;0.37;0.30;;;;;;;10.18;90.18;95014.69;5091723;28;20486;-53
2022/03/30 01:14:48;;;;;;;0.57;0.57;;;;;;;9.78;94.50;95018.28;5091498;28;20425;-53
2022/03/30 01:17:16;;;;;;;4.33;0.50;;;;;;;9.88;93.21;95012.94;5091627;28;20550;-53
2022/03/30 01:19:45;;;;;;;1.43;1.33;;;;;;;10.22;89.18;95021.00;5091061;28;20470;-53
2022/03/30 01:22:14;;;;;;;0.50;0.30;;;;;;;10.16;88.09;95022.91;5091913;28;20468;-53
2022/03/30 01:24:43;;;;;;;0.47;0.47;;;;;;;9.68;96.01;95017.53;5091781;28;20870;-53
2022/03/30 01:27:11;;;;;;;0.40;0.20;;;;;;;10.07;89.91;95015.75;5091533;28;20584;-53
2022/03/30 01:32:38;;;;;;;0.30;0.20;;;;;;;9.67;95.23;95008.78;5048271;28;20954;-53
2022/03/30 01:35:07;;;;;;;0.53;0.50;;;;;;;9.75;95.02;95020.66;5081775;28;20493;-53
2022/03/30 01:37:37;;;;;;;0.40;0.30;;;;;;;9.97;91.95;95021.09;5091382;28;20482;-53
2022/03/30 01:40:08;;;;;;;0.40;0.20;;;;;;;9.84;92.92;95027.78;5091324;28;20433;-53
2022/03/30 01:42:36;;;;;;;0.60;0.57;;;;;;;9.77;93.79;95014.03;5091065;28;20897;-53
2022/03/30 01:45:05;;;;;;;0.30;0.20;;;;;;;9.85;91.98;95015.34;5091522;28;20420;-53
2022/03/30 01:47:34;;;;;;;0.40;0.30;;;;;;;10.03;88.85;95018.16;5090686;28;20844;-53
2022/03/30 01:50:02;;;;;;;0.90;0.80;;;;;;;10.07;88.99;95016.56;5091254;28;20971;-53
2022/03/30 01:52:30;;;;;;;0.37;0.30;;;;;;;10.00;89.67;95021.34;5091258;28;20468;-53
2022/03/30 01:55:00;;;;;;;1.30;1.20;;;;;;;9.77;91.82;95022.00;5094754;28;20424;-54
2022/03/30 01:57:28;;;;;;;4.77;0.83;;;;;;;9.96;89.97;95022.97;5094706;28;20440;-54
2022/03/30 01:59:57;;;;;;;0.30;0.20;;;;;;;10.06;87.94;95017.63;5095170;28;20503;-54
2022/03/30 02:02:26;;;;;;;0.60;0.57;;;;;;;9.87;88.30;95007.91;5094625;28;21000;-54
2022/03/30 02:04:54;;;;;;;0.30;0.20;;;;;;;8.74;100.00;95036.72;5095037;28;20421;-54
2022/03/30 02:07:23;;;;;;;1.70;1.03;;;;;;;9.04;100.00;95012.94;5094855;28;20428;-53
2022/03/30 02:09:51;;;;;;;0.30;0.20;;;;;;;9.32;100.00;95035.34;5094641;28;21036;-54
2022/03/30 02:12:21;;;;;;;0.97;0.97;;;;;;;9.72;97.47;95022.00;5094465;28;20459;-53
2022/03/30 02:14:52;;;;;;;0.50;0.50;;;;;;;9.52;95.34;95024.72;5094652;28;20564;-53
2022/03/30 02:17:23;;;;;;;0.40;0.30;;;;;;;9.42;96.08;95019.47;5094543;28;20483;-53
2022/03/30 02:19:52;;;;;;;0.30;0.20;;;;;;;9.34;98.56;95020.00;5094360;28;20459;-53
2022/03/30 02:22:21;;;;;;;0.30;0.20;;;;;;;9.55;93.65;95014.41;5094008;28;20486;-53
2022/03/30 02:24:49;;;;;;;0.40;0.40;;;;;;;9.54;94.39;95012.00;5094492;28;20507;-53
2022/03/30 02:27:19;;;;;;;1.00;1.00;;;;;;;9.47;97.00;95019.44;5094123;28;20819;-53
2022/03/30 02:29:50;;;;;;;0.50;0.50;;;;;;;9.08;100.00;95018.47;5094085;28;21001;-53
2022/03/30 02:32:22;;;;;;;0.57;0.50;;;;;;;9.37;95.57;94990.38;5094432;28;20936;-53
2022/03/30 02:34:51;;;;;;;0.63;0.40;;;;;;;9.55;95.66;95000.38;5094486;28;20432;-53
2022/03/30 02:37:20;;;;;;;0.33;0.27;;;;;;;9.68;94.19;95002.44;5094375;28;20432;-54
2022/03/30 02:39:49;;;;;;;0.40;0.30;;;;;;;9.60;93.32;95005.66;5094345;28;20432;-53
2022/03/30 02:42:17;;;;;;;0.30;0.20;;;;;;;9.49;92.91;95017.31;5093861;28;20494;-53
2022/03/30 02:44:45;;;;;;;0.30;0.20;;;;;;;9.21;94.46;94976.41;5094234;28;20459;-53
2022/03/30 02:47:15;;;;;;;0.30;0.20;;;;;;;9.32;96.79;95009.69;5093677;28;20524;-54
2022/03/30 02:49:44;;;;;;;0.30;0.23;;;;;;;9.18;97.99;95023.75;5093865;28;20482;-53
2022/03/30 02:52:17;;;;;;;1.17;0.73;;;;;;;9.12;99.54;95014.22;5094078;28;20519;-53
2022/03/30 02:54:46;;;;;;;1.27;1.20;;;;;;;9.07;100.00;95007.09;5094074;28;20420;-53
2022/03/30 02:57:14;;;;;;;0.30;0.20;;;;;;;9.00;100.00;95008.44;5093593;28;20533;-53
2022/03/30 02:59:42;;;;;;;0.70;0.47;;;;;;;8.58;100.00;95011.34;5093951;28;20460;-53
2022/03/30 03:02:11;;;;;;;0.30;0.30;;;;;;;8.37;100.00;95007.13;5093905;28;20525;-54
2022/03/30 03:04:41;;;;;;;0.30;0.20;;;;;;;8.18;100.00;95006.78;5092796;28;20830;-53
2022/03/30 03:07:09;;;;;;;0.60;0.40;;;;;;;7.99;100.00;95006.50;5093451;28;21009;-53
2022/03/30 03:09:38;;;;;;;0.40;0.33;;;;;;;8.21;100.00;95014.19;5093522;28;20476;-54
2022/03/30 03:12:07;;;;;;;14.57;0.70;;;;;;;8.35;100.00;95014.53;5093426;28;20493;-53
2022/03/30 03:14:36;;;;;;;0.30;0.20;;;;;;;8.25;100.00;95004.69;5093643;28;20440;-54
2022/03/30 03:17:06;;;;;;;0.30;0.20;;;;;;;8.48;100.00;95004.22;5093531;28;20849;-53
2022/03/30 03:19:36;;;;;;;0.30;0.20;;;;;;;8.30;100.00;95012.66;5093204;28;20879;-53
2022/03/30 03:22:07;;;;;;;0.30;0.20;;;;;;;8.34;100.00;95015.56;5093282;28;20428;-53
2022/03/30 03:24:35;;;;;;;0.60;0.60;;;;;;;8.50;100.00;95017.19;5093071;28;20970;-53
2022/03/30 03:27:04;;;;;;;0.57;0.40;;;;;;;8.50;100.00;95014.53;5092792;28;20940;-53
2022/03/30 03:29:32;;;;;;;0.40;0.30;;;;;;;7.90;100.00;95008.03;5092974;28;20929;-54
2022/03/30 03:32:01;;;;;;;0.80;0.80;;;;;;;7.61;100.00;95002.41;5093222;28;20849;-53
2022/03/30 03:34:29;;;;;;;1.23;1.23;;;;;;;7.97;100.00;95007.81;5092710;28;20968;-53
2022/03/30 03:36:58;;;;;;;4.00;0.80;;;;;;;8.27;100.00;95015.84;5092195;28;20439;-53
2022/03/30 03:39:28;;;;;;;0.80;0.80;;;;;;;8.25;100.00;95015.25;5092776;28;20463;-53
2022/03/30 03:41:56;;;;;;;1.37;1.37;;;;;;;8.31;100.00;95011.59;5092942;28;20467;-53
2022/03/30 03:44:24;;;;;;;0.40;0.30;;;;;;;8.74;100.00;95024.31;5092790;28;20933;-53
2022/03/30 03:46:54;;;;;;;0.30;0.30;;;;;;;8.82;100.00;95018.50;5092859;28;20815;-53
2022/03/30 03:49:23;;;;;;;1.10;1.00;;;;;;;8.90;98.92;95012.66;5092524;28;20436;-53
2022/03/30 03:51:51;;;;;;;0.50;0.30;;;;;;;8.92;99.25;95015.84;5092747;28;20428;-53
2022/03/30 03:54:19;;;;;;;0.40;0.40;;;;;;;8.66;100.00;95011.63;5091830;28;20517;-53
2022/03/30 03:56:49;;;;;;;1.57;1.57;;;;;;;8.26;100.00;95006.28;5092402;28;20956;-53
2022/03/30 03:59:18;;;;;;;1.13;1.13;;;;;;;8.66;100.00;95008.97;5092369;28;20467;-53
2022/03/30 04:01:46;;;;;;;0.87;0.87;;;;;;;8.26;100.00;95014.19;5092346;28;21045;-53
2022/03/30 04:04:14;;;;;;;0.67;0.67;;;;;;;8.14;100.00;95009.19;5092255;28;20468;-53
2022/03/30 04:06:43;;;;;;;0.60;0.60;;;;;;;8.12;100.00;95011.25;5092530;28;20461;-53
2022/03/30 04:09:11;;;;;;;0.50;0.50;;;;;;;8.03;100.00;95001.47;5092235;28;20468;-53
2022/03/30 04:11:40;;;;;;;0.90;0.90;;;;;;;8.15;100.00;95004.66;5092118;28;20515;-53
2022/03/30 04:14:10;;;;;;;0.40;0.30;;;;;;;7.60;100.00;95000.81;5092235;28;20425;-53
2022/03/30 04:16:38;;;;;;;0.40;0.30;;;;;;;8.07;100.00;95013.13;5091066;28;20471;-53
2022/03/30 04:19:06;;;;;;;0.50;0.50;;;;;;;8.18;100.00;95010.22;5091876;28;20523;-53
2022/03/30 04:21:35;;;;;;;0.53;0.53;;;;;;;7.86;100.00;95016.75;5091949;28;20726;-52
2022/03/30 04:24:04;;;;;;;0.50;0.50;;;;;;;8.11;100.00;95004.41;5091889;28;20554;-53
2022/03/30 04:26:32;;;;;;;0.73;0.60;;;;;;;8.16;100.00;95006.28;5091907;28;20471;-53
2022/03/30 04:29:01;;;;;;;0.60;0.60;;;;;;;8.29;100.00;95008.44;5091346;28;20451;-53
2022/03/30 04:31:30;;;;;;;0.80;0.80;;;;;;;8.39;100.00;95016.38;5092084;28;20797;-53
2022/03/30 04:33:59;;;;;;;2.10;2.10;;;;;;;8.41;100.00;95022.19;5091796;28;20424;-53
2022/03/30 04:36:27;;;;;;;1.00;0.83;;;;;;;8.44;100.00;95013.72;5091800;28;20937;-53
2022/03/30 04:38:56;;;;;;;0.40;0.40;;;;;;;8.55;100.00;95025.09;5091429;28;20520;-54
2022/03/30 04:41:24;;;;;;;1.43;1.33;;;;;;;8.63;100.00;95022.72;5092001;28;20898;-55
2022/03/30 04:43:53;;;;;;;1.53;0.97;;;;;;;7.56;100.00;95023.47;5091538;28;20476;-53
2022/03/30 04:46:21;;;;;;;0.50;0.50;;;;;;;6.96;100.00;95002.06;5091237;28;20861;-54
2022/03/30 04:48:51;;;;;;;0.40;0.40;;;;;;;6.29;100.00;94976.31;5091842;28;20424;-54
2022/03/30 04:51:19;;;;;;;0.30;0.20;;;;;;;7.15;100.00;95020.91;5091544;28;20467;-54
2022/03/30 04:53:48;;;;;;;7.20;1.13;;;;;;;7.19;100.00;95033.31;5091319;28;20474;-54
2022/03/30 04:56:16;;;;;;;1.60;1.50;;;;;;;7.05;100.00;95021.63;5091708;28;20444;-54
2022/03/30 04:58:44;;;;;;;0.30;0.20;;;;;;;7.12;100.00;95029.31;5091567;28;20822;-54
2022/03/30 05:01:13;;;;;;;4.30;2.00;;;;;;;7.40;100.00;95029.75;5091966;28;20837;-54
2022/03/30 05:03:41;;;;;;;1.33;0.33;;;;;;;7.48;100.00;95025.81;5091367;28;20574;-53
2022/03/30 05:06:11;;;;;;;0.60;0.43;;;;;;;7.38;100.00;95031.03;5091287;28;20485;-53
2022/03/30 05:08:40;;;;;;;0.37;0.33;;;;;;;7.24;100.00;95033.34;5091176;28;20475;-53
2022/03/30 05:11:08;;;;;;;0.70;0.53;;;;;;;7.36;100.00;95035.78;5091366;28;20663;-53
2022/03/30 05:13:36;;;;;;;0.40;0.30;;;;;;;7.50;100.00;95037.69;5091610;28;20504;-54
2022/03/30 05:16:05;;;;;;;0.70;0.70;;;;;;;7.65;100.00;95031.69;5091692;28;20448;-53
2022/03/30 05:18:34;;;;;;;0.30;0.20;;;;;;;7.75;100.00;95038.84;5091150;28;20483;-54
2022/03/30 05:21:03;;;;;;;0.77;0.77;;;;;;;7.79;100.00;95035.47;5090707;28;21017;-53
2022/03/30 05:23:36;;;;;;;4.20;1.37;;;;;;;7.42;100.00;95042.66;5091285;28;20547;-54
2022/03/30 05:26:05;;;;;;;0.30;0.20;;;;;;;8.09;100.00;95038.19;5091436;28;20511;-54
2022/03/30 05:28:38;;;;;;;0.60;0.60;;;;;;;7.77;100.00;95039.41;5093198;28;20416;-54
2022/03/30 05:31:07;;;;;;;1.53;0.60;;;;;;;6.98;100.00;94958.59;5095458;28;20497;-54
2022/03/30 05:33:36;;;;;;;0.53;0.50;;;;;;;7.56;100.00;95041.16;5095484;28;20421;-54
2022/03/30 05:36:05;;;;;;;0.77;0.77;;;;;;;8.23;100.00;95044.56;5095113;28;20475;-54
2022/03/30 05:38:35;;;;;;;3.00;1.77;;;;;;;8.76;100.00;95039.88;5095238;28;20875;-54
2022/03/30 05:41:04;;;;;;;0.93;0.60;;;;;;;9.36;100.00;95042.47;5095370;28;20493;-53
2022/03/30 05:43:38;;;;;;;0.40;0.33;;;;;;;8.99;100.00;95049.13;5095176;28;20468;-53
2022/03/30 05:46:07;;;;;;;3.17;0.73;;;;;;;9.12;100.00;95041.47;5094710;28;20939;-53
2022/03/30 05:48:36;;;;;;;1.13;1.13;;;;;;;9.44;98.77;95041.94;5094939;28;20426;-53
2022/03/30 05:51:04;;;;;;;0.53;0.47;;;;;;;9.90;93.80;95041.78;5094824;28;20474;-53
2022/03/30 05:53:33;;;;;;;2.00;1.90;;;;;;;9.48;96.25;95034.25;5094970;28;20515;-53
2022/03/30 05:56:03;;;;;;;0.50;0.50;;;;;;;9.46;98.95;95050.38;5095055;28;20428;-53
2022/03/30 05:58:31;;;;;;;0.70;0.70;;;;;;;10.22;92.41;95047.47;5094884;28;20432;-53
2022/03/30 06:01:04;;;;;;;0.50;0.50;;;;;;;10.31;90.83;95045.88;5095067;28;20425;-53
2022/03/30 06:03:37;;;;;;;1.07;0.97;;;;;;;10.43;88.74;95046.31;5094599;28;20436;-52
2022/03/30 06:06:06;;;;;;;0.83;0.50;;;;;;;11.11;83.23;95051.63;5094870;28;20420;-52
2022/03/30 06:08:35;;;;;;;0.43;0.40;;;;;;;11.29;77.29;94993.38;5094443;28;20514;-51
2022/03/30 06:11:05;;;;;;;0.40;0.30;;;;;;;12.30;74.23;95041.88;5094240;28;20469;-51
2022/03/30 06:13:34;;;;;;;2.17;0.60;;;;;;;12.67;71.33;95029.38;5094486;28;20913;-51
2022/03/30 06:16:02;;;;;;;0.30;0.20;;;;;;;13.31;80.95;95046.47;5094539;28;20503;-52
2022/03/30 06:18:31;;;;;;;16.67;3.10;;;;;;;13.26;75.10;95047.34;5094265;28;20421;-52
2022/03/30 06:20:59;;;;;;;0.60;0.60;;;;;;;12.82;65.92;95046.19;5094164;28;20416;-52
2022/03/30 06:23:28;;;;;;;1.50;1.47;;;;;;;12.75;67.86;95050.00;5094645;28;20494;-52
2022/03/30 06:25:57;;;;;;;0.40;0.30;;;;;;;12.67;67.76;95053.31;5094216;28;20494;-52
2022/03/30 06:28:27;;;;;;;1.13;0.97;;;;;;;11.69;74.37;95063.09;5094092;28;20486;-52
2022/03/30 06:30:55;;;;;;;0.70;0.40;;;;;;;11.95;74.38;95056.41;5093727;28;20440;-52
2022/03/30 06:33:23;;;;;;;1.20;1.10;;;;;;;11.82;77.13;95059.72;5093917;28;20527;-53
2022/03/30 06:35:52;;;;;;;4.73;0.73;;;;;;;12.61;71.81;95062.44;5093887;28;20505;-52
2022/03/30 06:38:20;;;;;;;0.93;0.67;;;;;;;12.66;67.94;95072.22;5094304;28;20601;-52
2022/03/30 06:40:49;;;;;;;2.17;1.07;;;;;;;12.06;72.31;95068.50;5092664;28;20460;-52
2022/03/30 06:43:17;;;;;;;4.90;1.90;;;;;;;11.64;75.13;95055.13;5093947;28;20432;-52
2022/03/30 06:45:47;;;;;;;1.20;1.03;;;;;;;11.89;75.37;95057.53;5094135;28;20555;-51
2022/03/30 06:48:16;;;;;;;2.87;2.77;;;;;;;12.34;72.70;95062.31;5093658;28;20893;-51
2022/03/30 06:50:45;;;;;;;0.60;0.50;;;;;;;12.27;71.04;95063.72;5093497;28;20474;-51
2022/03/30 06:53:14;;;;;;;2.03;1.80;;;;;;;13.48;66.27;95062.69;5094054;28;20815;-51
2022/03/30 06:55:42;;;;;;;1.10;1.00;;;;;;;13.16;63.96;94959.72;5093766;28;20814;-52
2022/03/30 06:58:10;;;;;;;1.83;1.73;;;;;;;14.14;60.68;95050.81;5093498;28;20485;-53
2022/03/30 07:00:39;;;;;;;3.43;1.37;;;;;;;13.85;59.69;95057.22;5093814;28;20448;-53
2022/03/30 07:03:09;;;;;;;0.73;0.73;;;;;;;14.45;58.32;95057.88;5093333;28;20429;-53
2022/03/30 07:05:38;;;;;;;3.53;3.23;;;;;;;15.56;52.74;95057.19;5093293;28;20468;-53
2022/03/30 07:10:53;;;;;;;1.50;1.47;;;;;;;16.02;49.42;95049.53;5093126;28;21021;-53
2022/03/30 07:13:22;;;;;;;3.13;1.13;;;;;;;15.20;51.05;95054.59;5093080;28;20541;-53
2022/03/30 07:15:50;;;;;;;1.40;0.93;;;;;;;15.63;50.53;95049.53;5092845;28;20469;-54
2022/03/30 07:18:21;;;;;;;0.97;0.97;;;;;;;16.30;48.96;95055.44;5093243;28;20432;-54
2022/03/30 07:20:49;;;;;;;1.63;1.53;;;;;;;16.76;47.05;95058.38;5092441;28;20456;-55
2022/03/30 07:23:18;;;;;;;1.57;1.50;;;;;;;16.69;46.32;95033.97;5093141;28;20432;-55
2022/03/30 07:25:47;;;;;;;0.50;0.50;;;;;;;17.57;44.18;95053.94;5092792;28;20551;-57
2022/03/30 07:28:16;;;;;;;1.03;1.03;;;;;;;17.13;45.17;95048.91;5092128;28;20464;-58
2022/03/30 07:30:48;;;;;;;1.17;0.60;;;;;;;17.62;46.25;95055.66;5093264;28;20497;-59
2022/03/30 07:33:17;;;;;;;3.37;1.30;;;;;;;17.79;43.47;95052.91;5092765;28;20448;-59
2022/03/30 07:35:47;;;;;;;3.70;1.93;;;;;;;17.37;44.20;95043.88;5093294;28;20417;-60
2022/03/30 07:38:17;;;;;;;1.37;1.27;;;;;;;17.07;44.51;95050.19;5092799;28;20425;-60
2022/03/30 07:40:47;;;;;;;0.70;0.70;;;;;;;17.89;43.18;95051.78;5092663;28;20424;-60
2022/03/30 07:43:16;;;;;;;1.10;1.10;;;;;;;17.75;44.78;95055.47;5092538;28;20913;-59
2022/03/30 07:45:46;;;;;;;0.67;0.63;;;;;;;17.53;43.48;95044.94;5092786;28;20818;-59
2022/03/30 07:48:15;;;;;;;2.50;1.27;;;;;;;17.27;43.96;95049.56;5092302;28;20436;-59
2022/03/30 07:50:43;;;;;;;2.00;1.90;;;;;;;17.75;43.52;95047.44;5092116;28;20425;-58
2022/03/30 07:53:13;;;;;;;3.63;1.43;;;;;;;18.21;42.08;95054.66;5092624;28;20512;-57
2022/03/30 07:55:41;;;;;;;3.13;1.93;;;;;;;18.67;41.67;95044.97;5092259;28;20482;-56
2022/03/30 07:58:10;;;;;;;0.90;0.90;;;;;;;18.96;42.53;95040.31;5092210;28;20850;-56
2022/03/30 08:00:38;;;;;;;2.40;0.90;;;;;;;19.55;41.51;95034.75;5092148;28;20420;-56
2022/03/30 08:03:07;;;;;;;2.13;1.90;;;;;;;19.42;40.41;95033.13;5092049;28;20440;-56
2022/03/30 08:05:36;;;;;;;0.67;0.63;;;;;;;20.09;39.19;95027.31;5092238;28;20500;-55
2022/03/30 08:08:06;;;;;;;1.50;1.00;;;;;;;20.17;38.03;95031.78;5091703;28;20436;-55
2022/03/30 08:10:37;;;;;;;1.23;0.70;;;;;;;20.57;37.59;95026.53;5092082;28;20477;-55
2022/03/30 08:13:06;;;;;;;3.33;2.23;;;;;;;20.55;39.38;95024.19;5092186;28;20437;-55
2022/03/30 08:15:38;;;;;;;0.50;0.50;;;;;;;20.22;37.95;95010.84;5092040;28;20428;-54
2022/03/30 08:18:08;;;;;;;0.90;0.73;;;;;;;21.33;38.47;95013.75;5092360;28;20525;-54
2022/03/30 08:23:23;;;;;;;1.00;1.00;;;;;;;20.98;37.05;94998.47;5092029;28;20440;-55
2022/03/30 08:25:52;;;;;;;1.13;0.63;;;;;;;20.33;37.29;95005.81;5091631;28;20506;-55
2022/03/30 08:28:21;;;;;;;1.40;1.40;;;;;;;21.13;37.15;95003.97;5091983;28;20428;-54
2022/03/30 08:30:50;;;;;;;1.47;1.37;;;;;;;21.28;37.07;94997.81;5091697;28;20420;-54
2022/03/30 08:33:23;;;;;;;1.40;1.30;;;;;;;20.57;36.89;94994.22;5092187;28;20432;-54
2022/03/30 08:35:52;;;;;;;2.40;0.80;;;;;;;21.70;36.48;94992.78;5091551;28;20425;-55
2022/03/30 08:38:20;;;;;;;0.90;0.90;;;;;;;21.96;36.92;94995.00;5091409;28;20494;-54
2022/03/30 08:40:49;;;;;;;1.60;1.50;;;;;;;20.92;38.06;94997.97;5091770;28;20416;-55
2022/03/30 08:43:19;;;;;;;1.60;1.50;;;;;;;22.41;35.69;95003.41;5091845;28;20437;-54
2022/03/30 08:45:47;;;;;;;1.30;1.30;;;;;;;22.46;34.58;95000.44;5091920;28;20472;-54
2022/03/30 08:48:16;;;;;;;0.70;0.70;;;;;;;22.30;35.19;95007.75;5091688;28;20493;-54
2022/03/30 08:50:45;;;;;;;0.73;0.60;;;;;;;22.28;35.00;94990.34;5091705;28;20428;-54
2022/03/30 08:53:14;;;;;;;5.40;2.20;;;;;;;20.83;38.18;94998.09;5091122;28;20424;-54
2022/03/30 08:55:43;;;;;;;1.53;1.43;;;;;;;20.48;39.19;94998.94;5091474;28;20887;-54
2022/03/30 08:58:12;;;;;;;1.73;1.63;;;;;;;22.13;35.62;94987.34;5091705;28;20511;-54
2022/03/30 09:00:42;;;;;;;0.90;0.80;;;;;;;22.21;34.73;94982.88;5091929;28;20946;-54
2022/03/30 09:03:14;;;;;;;0.40;0.30;;;;;;;22.60;35.22;94975.63;5092918;28;20482;-53
2022/03/30 09:05:44;;;;;;;0.90;0.90;;;;;;;23.63;33.81;94973.88;5095768;28;20499;-54
2022/03/30 09:08:15;;;;;;;4.40;3.00;;;;;;;22.67;34.68;94968.50;5095442;28;20432;-54
2022/03/30 09:10:45;;;;;;;0.40;0.40;;;;;;;24.45;33.22;94965.97;5095819;28;20499;-54
2022/03/30 09:13:17;;;;;;;5.97;1.27;;;;;;;22.39;34.65;94959.75;5094527;28;20433;-54
2022/03/30 09:15:50;;;;;;;1.13;0.80;;;;;;;21.19;36.45;94964.06;5095767;28;20430;-54
2022/03/30 09:18:19;;;;;;;0.87;0.87;;;;;;;21.09;36.52;94959.97;5095973;28;20456;-54
2022/03/30 09:20:54;;;;;;;3.00;1.30;;;;;;;21.22;37.06;94942.63;5095731;28;20477;-54
2022/03/30 09:23:27;;;;;;;0.50;0.50;;;;;;;22.35;35.23;94948.09;5095901;28;20435;-54
2022/03/30 09:25:57;;;;;;;4.67;1.83;;;;;;;22.23;35.27;94950.91;5095439;28;20554;-55
2022/03/30 09:28:28;;;;;;;0.80;0.80;;;;;;;22.47;36.03;94941.78;5095414;28;20428;-57
2022/03/30 09:30:59;;;;;;;1.20;0.80;;;;;;;22.72;35.09;94941.19;5095552;28;20527;-54
2022/03/30 09:33:27;;;;;;;1.00;0.70;;;;;;;22.65;35.94;94937.56;5095114;28;20428;-55
2022/03/30 09:35:56;;;;;;;0.73;0.70;;;;;;;21.68;36.72;94943.00;5095432;28;20420;-53
2022/03/30 09:38:28;;;;;;;1.10;1.00;;;;;;;22.84;35.62;94926.78;5095099;28;20475;-53
2022/03/30 09:40:59;;;;;;;0.80;0.80;;;;;;;22.41;34.28;94829.78;5095219;28;20464;-54
2022/03/30 09:43:30;;;;;;;0.77;0.50;;;;;;;22.75;34.59;94908.06;5095306;28;20479;-53
2022/03/30 09:46:08;;;;;;;0.80;0.80;;;;;;;22.53;34.48;94906.06;5095049;28;20550;-53
2022/03/30 09:48:40;;;;;;;0.50;0.43;;;;;;;23.39;35.24;94901.19;5094748;28;20432;-54
2022/03/30 09:51:09;;;;;;;1.30;1.23;;;;;;;22.95;35.17;94900.72;5094547;28;20420;-54
2022/03/30 09:53:38;;;;;;;6.43;0.93;;;;;;;22.42;35.46;94847.53;5095099;28;20824;-54
2022/03/30 09:56:09;;;;;;;1.33;0.80;;;;;;;23.05;34.44;94889.34;5095123;28;20502;-53
2022/03/30 09:58:38;;;;;;;2.40;1.20;;;;;;;23.00;33.68;94880.72;5095101;28;20433;-53
2022/03/30 10:01:12;;;;;;;1.50;0.90;;;;;;;24.78;32.34;94878.53;5095242;28;20428;-53
2022/03/30 10:03:44;;;;;;;0.40;0.30;;;;;;;23.99;32.23;94875.88;5094710;28;20428;-54
2022/03/30 10:06:14;;;;;;;0.40;0.30;;;;;;;25.43;30.58;94859.03;5094572;28;20483;-54
2022/03/30 10:08:47;;;;;;;1.43;0.83;;;;;;;25.49;30.27;94868.44;5094448;28;20510;-54
2022/03/30 10:11:17;;;;;;;13.33;1.80;;;;;;;23.90;31.03;94861.84;5094722;28;20428;-54
2022/03/30 10:13:47;;;;;;;0.63;0.63;;;;;;;23.71;32.29;94851.09;5094622;28;20432;-54
2022/03/30 10:16:37;;;;;;;1.67;0.87;;;;;;;24.24;32.36;94845.69;5094315;28;20448;-54
2022/03/30 10:19:08;;;;;;;1.80;1.27;;;;;;;23.50;31.95;94841.88;5094468;28;20428;-54
2022/03/30 10:21:49;;;;;;;0.70;0.70;;;;;;;24.05;32.17;94834.97;5094393;28;20460;-54
2022/03/30 10:24:49;;;;;;;1.90;1.03;;;;;;;24.59;31.58;94827.94;5094312;28;20425;-54
2022/03/30 10:27:26;;;;;;;0.93;0.93;;;;;;;23.40;32.77;94821.63;5094387;28;20596;-54
2022/03/30 10:29:56;;;;;;;0.40;0.40;;;;;;;24.25;31.77;94822.88;5094322;28;20416;-54
2022/03/30 10:32:33;;;;;;;1.57;1.47;;;;;;;23.33;31.94;94818.75;5094047;28;21011;-54
2022/03/30 10:35:05;;;;;;;1.40;1.30;;;;;;;22.81;33.21;94807.81;5093853;28;20416;-54
2022/03/30 10:37:36;;;;;;;0.60;0.47;;;;;;;23.62;31.47;94801.88;5093939;28;20883;-54
2022/03/30 10:40:17;;;;;;;0.40;0.40;;;;;;;24.81;29.88;94796.47;5093840;28;20435;-54
2022/03/30 10:43:03;;;;;;;1.70;1.23;;;;;;;25.68;29.20;94786.78;5093224;28;20926;-54
2022/03/30 10:45:48;;;;;;;0.60;0.50;;;;;;;25.06;29.42;94791.28;5093897;28;20524;-54
2022/03/30 10:48:23;;;;;;;0.40;0.40;;;;;;;26.35;28.10;94766.22;5093476;28;20511;-54
2022/03/30 10:50:54;;;;;;;0.60;0.60;;;;;;;25.84;27.40;94770.97;5093369;28;20428;-55
2022/03/30 10:53:39;;;;;;;5.10;1.13;;;;;;;24.75;28.45;94764.63;5093690;28;21066;-55
2022/03/30 10:56:33;;;;;;;3.33;1.17;;;;;;;23.68;30.10;94765.22;5093654;28;20913;-55
2022/03/30 10:59:16;;;;;;;2.63;0.87;;;;;;;23.97;30.11;94758.28;5094119;28;20460;-53
2022/03/30 11:01:46;;;;;;;1.07;0.77;;;;;;;24.14;29.26;94765.88;5093186;28;21002;-53
2022/03/30 11:04:25;;;;;;;0.80;0.67;;;;;;;23.88;29.74;94757.78;5093184;28;20448;-53
2022/03/30 11:07:38;;;;;;;2.10;2.00;;;;;;;24.82;28.50;94762.78;5092780;28;20533;-53
2022/03/30 11:10:21;;;;;;;0.40;0.40;;;;;;;25.20;29.32;94759.66;5087854;28;20555;-53
2022/03/30 11:13:05;;;;;;;0.60;0.60;;;;;;;25.42;29.39;94757.09;5093188;28;20872;-53
2022/03/30 11:16:11;;;;;;;0.80;0.40;;;;;;;26.14;27.18;94738.97;5092420;28;20428;-53
2022/03/30 11:19:02;;;;;;;0.70;0.70;;;;;;;27.20;25.10;94744.66;5092983;28;20775;-54
2022/03/30 11:21:32;;;;;;;0.50;0.50;;;;;;;27.83;25.70;94740.38;5092919;28;20437;-54
2022/03/30 11:24:20;;;;;;;0.57;0.43;;;;;;;28.11;23.80;94740.28;5092704;28;20421;-54
2022/03/30 11:27:19;;;;;;;0.77;0.60;;;;;;;27.53;25.22;94716.28;5092470;28;20514;-54
2022/03/30 11:29:52;;;;;;;0.63;0.50;;;;;;;26.59;24.62;94728.66;5092809;28;20428;-55
2022/03/30 11:32:45;;;;;;;0.50;0.50;;;;;;;25.69;24.78;94712.34;5092972;28;20438;-54
2022/03/30 11:35:17;;;;;;;0.40;0.40;;;;;;;24.76;26.05;94604.34;5093067;28;20834;-53
2022/03/30 11:37:48;;;;;;;0.97;0.50;;;;;;;25.03;27.26;94714.19;5092645;28;20440;-54
2022/03/30 11:40:20;;;;;;;0.67;0.40;;;;;;;25.47;26.74;94697.88;5092794;28;20490;-53
2022/03/30 11:42:51;;;;;;;0.47;0.30;;;;;;;25.76;25.47;94696.88;5092614;28;20519;-53
2022/03/30 11:45:30;;;;;;;6.80;0.57;;;;;;;24.92;25.44;94678.06;5092578;28;20920;-53
2022/03/30 11:48:01;;;;;;;0.50;0.30;;;;;;;24.78;27.46;94699.63;5092361;28;20563;-53
2022/03/30 11:50:31;;;;;;;0.83;0.83;;;;;;;23.92;28.03;94697.13;5092783;28;20459;-54
2022/03/30 11:53:05;;;;;;;1.20;0.50;;;;;;;23.20;29.65;94687.59;5092290;28;20460;-54
2022/03/30 11:55:36;;;;;;;0.50;0.40;;;;;;;23.95;29.06;94703.72;5092606;28;20425;-55
2022/03/30 11:58:05;;;;;;;0.40;0.30;;;;;;;23.30;27.99;94700.53;5092710;28;20860;-54